Time;durP1;ratioP1;P1;durP2;ratioP2;P2;SDS_P1;SDS_P2;PMS_P1;PMS_P2;Temp;Humidity;BMP_temperature;BMP_pressure;BME280_temperature;BME280_humidity;BME280_pressure;Samples;Min_cycle;Max_cycle;Signal;HPM_P1;HPM_P2
2023/03/31 07:22:20;;;;;;;12.87;8.93;;;9.00;99.90;;;;;;5173786;27;20618;-77
2023/03/31 07:30:08;;;;;;;16.43;8.17;;;8.70;99.90;;;;;;5132870;27;20273;-77
2023/03/31 07:54:26;;;;;;;13.00;8.03;;;8.40;99.90;;;;;;5111879;27;20624;-76
2023/03/31 07:57:56;;;;;;;9.20;6.87;;;8.60;99.90;;;;;;5071811;28;20559;-77
2023/03/31 08:00:22;;;;;;;12.30;5.70;;;9.00;99.90;;;;;;5070989;28;20264;-77
2023/03/31 08:02:48;;;;;;;8.83;6.07;;;9.40;99.90;;;;;;5069400;28;20198;-77
2023/03/31 08:06:24;;;;;;;8.17;6.20;;;9.30;99.90;;;;;;5132804;27;20627;-77
2023/03/31 08:09:58;;;;;;;8.80;5.50;;;9.30;99.90;;;;;;5091974;28;20555;-77
2023/03/31 08:12:24;;;;;;;9.83;4.87;;;9.70;99.90;;;;;;5091005;28;20172;-77
2023/03/31 08:14:50;;;;;;;7.90;4.37;;;10.00;99.90;;;;;;5090977;28;20193;-77
2023/03/31 08:17:15;;;;;;;8.47;4.47;;;10.00;99.90;;;;;;5090965;28;20172;-77
2023/03/31 08:35:11;;;;;;;8.17;3.37;;;10.00;99.90;;;;;;5153570;27;20277;-77
2023/03/31 08:39:28;;;;;;;6.80;4.13;;;10.00;99.90;;;;;;5112365;27;20555;-77
2023/03/31 08:42:00;;;;;;;6.63;3.60;;;10.10;99.90;;;;;;5111396;28;20220;-77
2023/03/31 08:44:43;;;;;;;7.40;3.30;;;10.20;99.90;;;;;;5111670;28;20227;-77
2023/03/31 08:47:22;;;;;;;4.87;2.77;;;11.20;99.90;;;;;;5111503;28;20269;-77
2023/03/31 08:49:53;;;;;;;8.63;3.40;;;12.50;99.90;;;;;;5111412;28;20199;-77
2023/03/31 08:52:23;;;;;;;6.43;3.47;;;12.80;99.90;;;;;;5111401;28;20187;-77
2023/03/31 08:54:55;;;;;;;4.20;2.63;;;12.20;99.90;;;;;;5111243;28;20191;-77
2023/03/31 08:57:26;;;;;;;6.30;3.07;;;11.90;99.90;;;;;;5111381;28;20241;-77
2023/03/31 08:59:57;;;;;;;7.70;3.03;;;12.30;99.90;;;;;;5111251;28;20546;-77
2023/03/31 09:03:10;;;;;;;6.23;3.13;;;12.90;99.90;;;;;;5109807;28;20214;-77
2023/03/31 09:05:50;;;;;;;7.23;3.30;;;13.10;99.90;;;;;;5012114;28;20212;-78
2023/03/31 09:08:25;;;;;;;3.30;2.20;;;13.30;99.90;;;;;;5102627;28;20272;-77
2023/03/31 09:11:07;;;;;;;3.57;2.23;;;13.40;99.90;;;;;;5109761;28;20184;-77
2023/03/31 09:13:51;;;;;;;5.93;2.20;;;12.90;99.90;;;;;;5110815;28;20205;-77
2023/03/31 09:16:28;;;;;;;4.33;2.10;;;13.00;99.90;;;;;;5111292;28;20176;-77
2023/03/31 09:19:01;;;;;;;3.43;2.00;;;13.30;99.90;;;;;;5110073;28;20201;-78
2023/03/31 09:21:34;;;;;;;6.70;2.90;;;12.70;99.90;;;;;;5109541;28;20170;-77
2023/03/31 09:24:09;;;;;;;7.07;2.30;;;13.10;99.90;;;;;;5110656;28;20277;-77
2023/03/31 09:26:51;;;;;;;4.80;2.70;;;12.90;99.90;;;;;;5111746;28;20252;-77
2023/03/31 09:29:50;;;;;;;6.00;2.87;;;13.30;99.90;;;;;;5111035;28;20230;-78
2023/03/31 09:32:23;;;;;;;4.23;1.83;;;13.70;99.90;;;;;;5069615;28;20195;-77
2023/03/31 09:34:52;;;;;;;3.37;2.00;;;13.80;99.90;;;;;;5111189;28;20232;-78
2023/03/31 09:37:18;;;;;;;4.07;2.30;;;13.70;99.90;;;;;;5109886;28;22500;-78
2023/03/31 09:39:44;;;;;;;3.43;1.93;;;13.00;99.90;;;;;;5110601;28;20162;-77
2023/03/31 09:42:14;;;;;;;4.03;2.10;;;12.70;99.90;;;;;;5108929;28;20178;-77
2023/03/31 09:44:43;;;;;;;4.03;2.30;;;13.20;99.90;;;;;;5110421;28;20200;-78
2023/03/31 09:47:37;;;;;;;2.83;1.73;;;13.70;99.90;;;;;;5109487;28;20201;-78
2023/03/31 09:50:06;;;;;;;2.83;1.90;;;13.60;99.90;;;;;;5094023;28;20182;-77
2023/03/31 09:52:35;;;;;;;3.53;2.30;;;13.40;99.90;;;;;;5096112;28;20211;-78
2023/03/31 09:55:06;;;;;;;4.73;2.30;;;13.30;99.90;;;;;;5096346;28;20202;-78
2023/03/31 09:57:38;;;;;;;5.67;2.47;;;13.40;99.90;;;;;;5096181;28;20196;-78
2023/03/31 10:00:21;;;;;;;3.67;2.37;;;13.50;99.90;;;;;;5096520;28;20168;-77
2023/03/31 10:02:51;;;;;;;4.03;2.37;;;13.90;99.90;;;;;;5096277;28;20206;-77
2023/03/31 10:05:36;;;;;;;3.53;2.00;;;13.90;99.90;;;;;;5096516;28;20176;-77
2023/03/31 10:08:23;;;;;;;5.03;2.63;;;13.80;99.90;;;;;;5096370;28;20175;-77
2023/03/31 10:10:54;;;;;;;4.50;2.73;;;14.10;99.90;;;;;;5095413;28;20180;-77
2023/03/31 10:13:34;;;;;;;3.93;2.67;;;13.50;99.90;;;;;;5096047;28;20542;-77
2023/03/31 10:16:08;;;;;;;5.73;2.33;;;13.40;99.90;;;;;;5095162;28;20171;-77
2023/03/31 10:18:38;;;;;;;5.73;2.57;;;12.70;99.90;;;;;;5094771;28;20306;-77
2023/03/31 10:21:09;;;;;;;4.33;2.97;;;12.40;99.90;;;;;;5094878;28;20170;-77
2023/03/31 10:23:35;;;;;;;4.87;2.97;;;12.20;99.90;;;;;;5096100;28;20272;-77
2023/03/31 10:26:02;;;;;;;4.20;2.33;;;11.80;99.90;;;;;;5096572;28;20609;-77
2023/03/31 10:28:32;;;;;;;4.23;2.97;;;11.50;99.90;;;;;;5096449;28;20184;-78
2023/03/31 10:31:00;;;;;;;4.37;2.70;;;11.30;99.90;;;;;;5096604;28;20164;-78
2023/03/31 10:36:25;;;;;;;7.30;2.83;;;11.00;99.90;;;;;;5071293;28;20551;-76
2023/03/31 10:42:17;;;;;;;6.10;3.10;;;10.70;99.90;;;;;;5090948;28;21164;-77
2023/03/31 10:58:25;;;;;;;5.73;2.87;;;8.50;99.90;;;;;;5112871;27;20532;-77
2023/03/31 11:01:06;;;;;;;4.67;3.00;;;8.50;99.90;;;;;;5111721;28;20560;-77
2023/03/31 11:04:18;;;;;;;7.50;3.03;;;8.80;99.90;;;;;;5163662;27;20347;-77
2023/03/31 11:07:11;;;;;;;6.80;4.30;;;9.00;99.90;;;;;;5152842;27;20174;-77
2023/03/31 11:09:52;;;;;;;6.30;3.00;;;9.30;99.90;;;;;;5134146;27;20648;-76
2023/03/31 11:12:29;;;;;;;5.93;3.10;;;9.90;99.90;;;;;;5133978;27;20159;-76
2023/03/31 11:15:15;;;;;;;4.57;2.90;;;9.90;99.90;;;;;;5152375;27;20213;-76
2023/03/31 11:17:55;;;;;;;5.40;2.50;;;9.90;99.90;;;;;;5152753;27;20154;-76
2023/03/31 11:20:41;;;;;;;6.93;2.50;;;10.70;99.90;;;;;;5133953;27;20158;-76
2023/03/31 11:23:16;;;;;;;4.90;1.63;;;11.70;99.90;;;;;;5152253;27;20199;-77
2023/03/31 11:25:59;;;;;;;3.07;1.80;;;11.80;99.90;;;;;;5152259;27;20226;-77
2023/03/31 11:28:48;;;;;;;3.10;1.80;;;11.80;99.90;;;;;;5133853;27;20541;-77
2023/03/31 11:31:47;;;;;;;3.77;1.80;;;12.00;99.90;;;;;;5092587;27;20640;-76
2023/03/31 11:34:25;;;;;;;1.70;1.07;;;12.40;99.90;;;;;;5121307;27;20202;-79
2023/03/31 11:37:16;;;;;;;2.60;1.47;;;12.30;99.90;;;;;;5153134;27;20672;-80
2023/03/31 11:40:00;;;;;;;4.57;1.63;;;11.70;99.90;;;;;;5151829;27;20198;-77
2023/03/31 11:42:32;;;;;;;3.60;1.70;;;11.30;99.90;;;;;;5151529;27;20217;-76
2023/03/31 11:45:11;;;;;;;4.87;1.63;;;11.20;99.90;;;;;;5151923;27;20198;-77
2023/03/31 11:47:40;;;;;;;1.93;1.57;;;11.70;99.90;;;;;;5151847;27;20182;-77
2023/03/31 11:50:15;;;;;;;2.70;1.63;;;12.10;99.90;;;;;;5151967;27;20631;-76
2023/03/31 11:52:47;;;;;;;3.90;1.60;;;12.80;99.90;;;;;;5133099;27;20166;-77
2023/03/31 11:55:20;;;;;;;3.37;1.30;;;13.60;99.90;;;;;;5133178;27;20289;-77
2023/03/31 11:57:49;;;;;;;3.83;1.70;;;14.20;99.90;;;;;;5133007;27;20162;-77
2023/03/31 12:00:21;;;;;;;2.83;1.50;;;14.70;99.90;;;;;;5132935;27;20593;-77
2023/03/31 12:03:13;;;;;;;5.17;1.87;;;15.10;99.90;;;;;;5151270;27;20207;-77
2023/03/31 12:05:56;;;;;;;3.43;1.47;;;14.70;99.90;;;;;;5134168;27;20255;-78
2023/03/31 12:08:37;;;;;;;2.27;1.33;;;13.80;99.90;;;;;;5133720;27;20192;-78
2023/03/31 12:11:07;;;;;;;5.50;3.03;;;12.90;99.90;;;;;;5133003;27;20165;-77
2023/03/31 12:13:40;;;;;;;4.77;1.60;;;12.20;99.90;;;;;;5147737;27;20657;-77
2023/03/31 12:16:21;;;;;;;1.63;1.20;;;11.80;99.90;;;;;;5137707;27;20153;-77
2023/03/31 12:19:14;;;;;;;2.23;1.20;;;11.30;99.90;;;;;;5119886;27;20257;-78
2023/03/31 12:50:34;;;;;;;3.07;2.00;;;7.60;99.90;;;;;;5111590;27;20525;-76
2023/03/31 12:54:50;;;;;;;1.93;1.37;;;7.90;99.90;;;;;;5131503;27;20630;-76
2023/03/31 12:58:28;;;;;;;2.17;1.53;;;8.60;99.90;;;;;;5132380;27;20267;-78
2023/03/31 13:01:14;;;;;;;3.60;1.83;;;8.60;99.90;;;;;;5132452;28;20493;-78
2023/03/31 13:04:18;;;;;;;4.50;1.73;;;8.70;99.90;;;;;;5116435;28;20191;-75
2023/03/31 13:06:52;;;;;;;4.00;1.83;;;8.90;99.90;;;;;;5131611;28;20647;-75
2023/03/31 13:09:18;;;;;;;2.40;1.50;;;9.20;99.90;;;;;;5131686;28;20818;-75
2023/03/31 13:11:47;;;;;;;2.60;1.37;;;9.50;99.90;;;;;;5131360;27;20281;-76
2023/03/31 13:14:20;;;;;;;1.60;1.40;;;9.80;99.90;;;;;;5131617;27;20194;-76
2023/03/31 13:16:47;;;;;;;2.80;1.57;;;9.80;99.90;;;;;;5131384;27;20223;-76
2023/03/31 13:19:33;;;;;;;1.67;1.57;;;9.90;99.90;;;;;;5129940;28;20258;-76
2023/03/31 13:22:01;;;;;;;3.73;1.33;;;10.00;99.90;;;;;;5131424;27;20167;-76
2023/03/31 13:24:28;;;;;;;3.07;1.20;;;10.00;99.90;;;;;;5131373;27;20198;-76
2023/03/31 13:26:57;;;;;;;4.90;1.60;;;10.00;99.90;;;;;;5131289;27;20175;-76
2023/03/31 13:29:37;;;;;;;4.27;1.43;;;10.00;99.90;;;;;;5131350;27;20633;-76
2023/03/31 13:32:03;;;;;;;4.93;1.60;;;10.00;99.90;;;;;;5131070;27;20175;-76
2023/03/31 13:34:34;;;;;;;5.10;1.70;;;10.00;99.90;;;;;;5130952;27;20205;-76
2023/03/31 13:37:44;;;;;;;2.90;1.60;;;10.00;99.90;;;;;;5129911;28;20206;-76
2023/03/31 13:40:21;;;;;;;2.27;1.80;;;10.00;99.90;;;;;;5130871;28;20167;-76
2023/03/31 13:43:26;;;;;;;1.50;1.00;;;10.00;99.90;;;;;;5130984;27;20686;-76
2023/03/31 13:46:35;;;;;;;2.77;1.43;;;10.00;99.90;;;;;;5131077;27;20173;-75
2023/03/31 13:49:25;;;;;;;3.53;1.80;;;10.00;99.90;;;;;;5131086;27;20211;-76
2023/03/31 13:52:00;;;;;;;3.37;1.40;;;10.00;99.90;;;;;;5130797;27;20529;-76
2023/03/31 13:54:28;;;;;;;3.30;1.80;;;10.00;99.90;;;;;;5130880;27;20189;-75
2023/03/31 13:57:16;;;;;;;3.00;1.50;;;9.90;99.90;;;;;;5129217;28;20210;-76
2023/03/31 14:00:00;;;;;;;2.13;1.20;;;9.60;99.90;;;;;;5130851;27;20175;-77
2023/03/31 14:02:51;;;;;;;1.23;1.10;;;9.00;99.90;;;;;;5131946;27;20163;-77
2023/03/31 14:15:20;;;;;;;3.53;1.20;;;8.30;99.90;;;;;;5070879;28;20924;-75
2023/03/31 14:17:46;;;;;;;2.77;1.53;;;;;;;;;;5069439;28;20192;-76
2023/03/31 14:20:31;;;;;;;1.57;1.30;;;9.10;99.90;;;;;;5069215;28;20181;-75
2023/03/31 14:23:21;;;;;;;1.17;1.07;;;10.70;99.90;;;;;;5070275;28;20172;-75
2023/03/31 14:26:20;;;;;;;2.73;0.83;;;10.90;99.90;;;;;;5070582;28;20241;-76
2023/03/31 14:29:19;;;;;;;1.17;0.90;;;12.50;99.90;;;;;;5070655;28;20613;-76
2023/03/31 14:32:16;;;;;;;4.20;1.10;;;11.80;99.90;;;;;;5070449;28;20639;-76
2023/03/31 14:34:42;;;;;;;1.80;1.03;;;11.20;99.90;;;;;;5070162;28;20624;-76
2023/03/31 14:37:14;;;;;;;2.43;1.10;;;10.90;99.90;;;;;;5070297;28;20256;-76
2023/03/31 14:39:49;;;;;;;2.10;1.10;;;10.60;99.90;;;;;;5070232;28;20173;-76
2023/03/31 14:42:39;;;;;;;2.67;1.10;;;10.70;99.90;;;;;;5070139;28;20171;-76
2023/03/31 14:45:23;;;;;;;4.17;1.20;;;10.80;99.90;;;;;;5060545;28;20205;-76
2023/03/31 14:48:09;;;;;;;2.07;1.00;;;10.50;99.90;;;;;;5070029;28;20177;-75
2023/03/31 14:50:35;;;;;;;1.93;0.80;;;10.30;99.90;;;;;;5068816;28;20173;-76
2023/03/31 14:53:03;;;;;;;2.23;1.23;;;10.00;99.90;;;;;;5069778;28;20177;-77
2023/03/31 14:55:32;;;;;;;1.60;1.20;;;10.00;99.90;;;;;;5070095;28;20173;-76
2023/03/31 14:58:00;;;;;;;1.97;0.90;;;10.00;99.90;;;;;;5069924;28;20662;-76
2023/03/31 15:00:34;;;;;;;1.40;0.90;;;10.10;99.90;;;;;;5070263;28;20193;-76
2023/03/31 15:03:04;;;;;;;2.87;1.00;;;10.10;99.90;;;;;;5070272;28;20196;-76
2023/03/31 15:05:36;;;;;;;3.67;1.40;;;10.20;99.90;;;;;;5069934;28;20192;-77
2023/03/31 15:08:04;;;;;;;3.53;1.80;;;10.30;99.90;;;;;;5070350;28;20184;-77
2023/03/31 15:10:38;;;;;;;2.70;1.50;;;10.40;99.90;;;;;;5069897;28;20559;-77
2023/03/31 15:13:23;;;;;;;2.07;1.23;;;10.50;99.90;;;;;;5069646;28;20653;-75
2023/03/31 15:15:49;;;;;;;4.10;1.33;;;10.50;99.90;;;;;;5069720;28;20177;-76
2023/03/31 15:18:15;;;;;;;1.73;1.43;;;10.60;99.90;;;;;;5069683;28;20222;-75
2023/03/31 15:20:42;;;;;;;2.00;1.37;;;10.60;99.90;;;;;;5069235;28;20184;-74
2023/03/31 15:23:26;;;;;;;2.40;1.60;;;10.50;99.90;;;;;;5069250;28;20180;-75
2023/03/31 15:25:58;;;;;;;4.57;1.70;;;10.50;99.90;;;;;;5059422;28;20180;-76
2023/03/31 15:28:27;;;;;;;1.63;1.53;;;10.30;99.90;;;;;;5056387;28;20166;-76
2023/03/31 15:30:54;;;;;;;3.63;1.57;;;10.20;99.90;;;;;;5056488;28;20174;-76
2023/03/31 15:33:30;;;;;;;1.87;1.37;;;10.30;99.90;;;;;;5054688;28;20270;-75
2023/03/31 15:35:56;;;;;;;3.80;1.60;;;10.50;99.90;;;;;;5054729;28;20176;-76
2023/03/31 15:38:26;;;;;;;1.67;1.53;;;10.40;99.90;;;;;;5056012;28;20173;-76
2023/03/31 15:40:55;;;;;;;2.17;1.20;;;10.20;99.90;;;;;;5055835;28;20192;-76
2023/03/31 15:43:49;;;;;;;3.10;1.60;;;10.10;99.90;;;;;;5055597;28;20190;-75
2023/03/31 15:46:24;;;;;;;2.30;1.33;;;9.90;99.90;;;;;;5054708;28;20670;-76
2023/03/31 15:48:52;;;;;;;3.43;1.33;;;9.80;99.90;;;;;;5055856;28;20173;-76
2023/03/31 15:51:23;;;;;;;3.90;1.60;;;9.90;99.90;;;;;;5055962;28;20192;-76
2023/03/31 15:53:52;;;;;;;2.83;1.40;;;9.80;99.90;;;;;;5055318;28;20288;-75
2023/03/31 15:56:29;;;;;;;2.33;1.37;;;9.80;99.90;;;;;;5055643;28;20521;-76
2023/03/31 15:59:05;;;;;;;3.20;1.40;;;9.80;99.90;;;;;;5055699;28;20181;-76
2023/03/31 16:01:34;;;;;;;2.70;1.80;;;9.80;99.90;;;;;;5055758;28;20208;-76
2023/03/31 16:04:05;;;;;;;3.00;1.50;;;9.70;99.90;;;;;;5055295;28;20189;-75
2023/03/31 16:06:45;;;;;;;3.07;1.57;;;9.70;99.90;;;;;;5055541;28;20173;-75
2023/03/31 16:09:26;;;;;;;1.53;1.20;;;9.70;99.90;;;;;;5054172;28;20182;-75
2023/03/31 16:12:09;;;;;;;3.80;1.27;;;9.70;99.90;;;;;;5055283;28;20643;-75
2023/03/31 16:14:41;;;;;;;3.03;1.20;;;9.70;99.90;;;;;;5055053;28;20211;-75
2023/03/31 16:17:13;;;;;;;1.70;1.00;;;9.70;99.90;;;;;;5054107;28;20189;-76
2023/03/31 16:19:47;;;;;;;10.10;6.67;;;9.70;99.90;;;;;;5055313;28;20178;-76
2023/03/31 16:22:18;;;;;;;3.80;3.03;;;9.60;99.90;;;;;;5054959;28;20221;-75
2023/03/31 16:24:44;;;;;;;2.70;2.10;;;9.60;99.90;;;;;;5055071;28;20564;-76
